sensor_id;sensor_type;location;lat;lon;timestamp;P1;durP1;ratioP1;P2;durP2;ratioP2
34639;SDS011;22600;48.186;11.526;2022-12-07T00:01:06;2.08;;;1.50;;
34639;SDS011;22600;48.186;11.526;2022-12-07T00:03:33;2.13;;;1.40;;
34639;SDS011;22600;48.186;11.526;2022-12-07T00:06:00;2.53;;;1.40;;
34639;SDS011;22600;48.186;11.526;2022-12-07T00:08:27;2.58;;;1.58;;
34639;SDS011;22600;48.186;11.526;2022-12-07T00:10:53;2.50;;;1.50;;
34639;SDS011;22600;48.186;11.526;2022-12-07T00:13:18;2.47;;;1.42;;
34639;SDS011;22600;48.186;11.526;2022-12-07T00:15:44;2.33;;;1.40;;
34639;SDS011;22600;48.186;11.526;2022-12-07T00:18:10;1.70;;;1.20;;
34639;SDS011;22600;48.186;11.526;2022-12-07T00:20:35;2.60;;;1.40;;
34639;SDS011;22600;48.186;11.526;2022-12-07T00:23:01;1.98;;;1.50;;
34639;SDS011;22600;48.186;11.526;2022-12-07T00:25:27;2.47;;;1.50;;
34639;SDS011;22600;48.186;11.526;2022-12-07T00:27:53;1.70;;;1.30;;
34639;SDS011;22600;48.186;11.526;2022-12-07T00:30:21;1.63;;;1.23;;
34639;SDS011;22600;48.186;11.526;2022-12-07T00:32:47;2.25;;;1.50;;
34639;SDS011;22600;48.186;11.526;2022-12-07T00:35:13;2.15;;;1.42;;
34639;SDS011;22600;48.186;11.526;2022-12-07T00:37:39;2.00;;;1.35;;
34639;SDS011;22600;48.186;11.526;2022-12-07T00:40:05;3.05;;;1.42;;
34639;SDS011;22600;48.186;11.526;2022-12-07T00:42:31;2.20;;;1.20;;
34639;SDS011;22600;48.186;11.526;2022-12-07T00:44:57;1.63;;;1.13;;
34639;SDS011;22600;48.186;11.526;2022-12-07T00:47:22;2.22;;;1.25;;
34639;SDS011;22600;48.186;11.526;2022-12-07T00:49:48;2.30;;;1.48;;
34639;SDS011;22600;48.186;11.526;2022-12-07T00:52:13;2.17;;;1.30;;
34639;SDS011;22600;48.186;11.526;2022-12-07T00:54:39;2.15;;;1.27;;
34639;SDS011;22600;48.186;11.526;2022-12-07T00:57:05;2.03;;;1.35;;
34639;SDS011;22600;48.186;11.526;2022-12-07T00:59:31;1.95;;;1.30;;
34639;SDS011;22600;48.186;11.526;2022-12-07T01:01:57;2.05;;;1.40;;
34639;SDS011;22600;48.186;11.526;2022-12-07T01:04:22;2.28;;;1.33;;
34639;SDS011;22600;48.186;11.526;2022-12-07T01:06:48;2.70;;;1.40;;
34639;SDS011;22600;48.186;11.526;2022-12-07T01:09:14;2.22;;;1.40;;
34639;SDS011;22600;48.186;11.526;2022-12-07T01:11:39;2.28;;;1.40;;
34639;SDS011;22600;48.186;11.526;2022-12-07T01:14:05;2.72;;;1.40;;
34639;SDS011;22600;48.186;11.526;2022-12-07T01:16:31;1.65;;;1.17;;
34639;SDS011;22600;48.186;11.526;2022-12-07T01:18:58;2.83;;;1.25;;
34639;SDS011;22600;48.186;11.526;2022-12-07T01:21:26;3.20;;;1.65;;
34639;SDS011;22600;48.186;11.526;2022-12-07T01:23:54;2.35;;;1.40;;
34639;SDS011;22600;48.186;11.526;2022-12-07T01:26:22;1.30;;;1.00;;
34639;SDS011;22600;48.186;11.526;2022-12-07T01:28:49;2.38;;;1.27;;
34639;SDS011;22600;48.186;11.526;2022-12-07T01:31:16;1.52;;;1.10;;
34639;SDS011;22600;48.186;11.526;2022-12-07T01:33:44;2.75;;;1.27;;
34639;SDS011;22600;48.186;11.526;2022-12-07T01:36:15;2.47;;;1.30;;
34639;SDS011;22600;48.186;11.526;2022-12-07T01:38:43;2.47;;;1.50;;
34639;SDS011;22600;48.186;11.526;2022-12-07T01:41:10;1.30;;;1.10;;
34639;SDS011;22600;48.186;11.526;2022-12-07T01:43:36;1.83;;;1.20;;
34639;SDS011;22600;48.186;11.526;2022-12-07T01:46:22;3.25;;;1.50;;
34639;SDS011;22600;48.186;11.526;2022-12-07T01:48:47;2.30;;;1.55;;
34639;SDS011;22600;48.186;11.526;2022-12-07T01:51:13;2.22;;;1.50;;
34639;SDS011;22600;48.186;11.526;2022-12-07T01:53:42;1.98;;;1.13;;
34639;SDS011;22600;48.186;11.526;2022-12-07T01:56:10;2.22;;;1.30;;
34639;SDS011;22600;48.186;11.526;2022-12-07T01:58:41;1.88;;;1.25;;
34639;SDS011;22600;48.186;11.526;2022-12-07T02:01:08;1.80;;;1.20;;
34639;SDS011;22600;48.186;11.526;2022-12-07T02:03:40;2.92;;;1.30;;
34639;SDS011;22600;48.186;11.526;2022-12-07T02:06:08;1.70;;;1.30;;
34639;SDS011;22600;48.186;11.526;2022-12-07T02:08:36;4.07;;;1.50;;
34639;SDS011;22600;48.186;11.526;2022-12-07T02:11:03;1.98;;;1.30;;
34639;SDS011;22600;48.186;11.526;2022-12-07T02:13:31;1.58;;;1.20;;
34639;SDS011;22600;48.186;11.526;2022-12-07T02:16:04;1.70;;;1.20;;
34639;SDS011;22600;48.186;11.526;2022-12-07T02:21:27;1.73;;;1.20;;
34639;SDS011;22600;48.186;11.526;2022-12-07T02:29:27;1.92;;;1.30;;
34639;SDS011;22600;48.186;11.526;2022-12-07T02:32:07;2.67;;;1.30;;
34639;SDS011;22600;48.186;11.526;2022-12-07T02:34:48;2.15;;;1.10;;
34639;SDS011;22600;48.186;11.526;2022-12-07T02:39:57;2.25;;;1.38;;
34639;SDS011;22600;48.186;11.526;2022-12-07T02:42:36;1.90;;;1.30;;
34639;SDS011;22600;48.186;11.526;2022-12-07T02:45:05;1.70;;;1.23;;
34639;SDS011;22600;48.186;11.526;2022-12-07T02:47:33;1.95;;;1.30;;
34639;SDS011;22600;48.186;11.526;2022-12-07T02:50:02;2.05;;;1.30;;
34639;SDS011;22600;48.186;11.526;2022-12-07T02:52:31;2.90;;;1.30;;
34639;SDS011;22600;48.186;11.526;2022-12-07T02:54:57;2.22;;;1.27;;
34639;SDS011;22600;48.186;11.526;2022-12-07T03:00:00;1.70;;;1.30;;
34639;SDS011;22600;48.186;11.526;2022-12-07T03:02:38;1.75;;;1.27;;
34639;SDS011;22600;48.186;11.526;2022-12-07T03:10:58;1.17;;;1.05;;
34639;SDS011;22600;48.186;11.526;2022-12-07T03:19:00;1.45;;;1.02;;
34639;SDS011;22600;48.186;11.526;2022-12-07T03:21:42;2.10;;;1.20;;
34639;SDS011;22600;48.186;11.526;2022-12-07T03:24:15;2.00;;;1.30;;
34639;SDS011;22600;48.186;11.526;2022-12-07T03:26:47;2.10;;;1.15;;
34639;SDS011;22600;48.186;11.526;2022-12-07T03:29:25;1.60;;;1.25;;
34639;SDS011;22600;48.186;11.526;2022-12-07T03:31:58;1.50;;;1.30;;
34639;SDS011;22600;48.186;11.526;2022-12-07T03:34:32;1.65;;;1.00;;
34639;SDS011;22600;48.186;11.526;2022-12-07T03:37:15;3.63;;;1.20;;
34639;SDS011;22600;48.186;11.526;2022-12-07T03:39:56;1.70;;;1.23;;
34639;SDS011;22600;48.186;11.526;2022-12-07T03:42:23;1.30;;;1.00;;
34639;SDS011;22600;48.186;11.526;2022-12-07T03:44:48;2.63;;;1.13;;
34639;SDS011;22600;48.186;11.526;2022-12-07T03:47:35;2.22;;;1.30;;
34639;SDS011;22600;48.186;11.526;2022-12-07T03:52:51;1.27;;;1.13;;
34639;SDS011;22600;48.186;11.526;2022-12-07T03:55:27;1.65;;;1.20;;
34639;SDS011;22600;48.186;11.526;2022-12-07T03:57:57;1.88;;;1.30;;
34639;SDS011;22600;48.186;11.526;2022-12-07T04:00:27;1.52;;;1.20;;
34639;SDS011;22600;48.186;11.526;2022-12-07T04:02:53;1.80;;;1.10;;
34639;SDS011;22600;48.186;11.526;2022-12-07T04:05:19;1.75;;;1.15;;
34639;SDS011;22600;48.186;11.526;2022-12-07T04:07:45;2.25;;;1.45;;
34639;SDS011;22600;48.186;11.526;2022-12-07T04:10:11;1.92;;;1.10;;
34639;SDS011;22600;48.186;11.526;2022-12-07T04:12:37;1.38;;;1.08;;
34639;SDS011;22600;48.186;11.526;2022-12-07T04:15:03;1.58;;;1.10;;
34639;SDS011;22600;48.186;11.526;2022-12-07T04:17:29;1.65;;;1.20;;
34639;SDS011;22600;48.186;11.526;2022-12-07T04:19:54;1.60;;;1.20;;
34639;SDS011;22600;48.186;11.526;2022-12-07T04:22:20;2.05;;;1.10;;
34639;SDS011;22600;48.186;11.526;2022-12-07T04:24:45;1.35;;;1.20;;
34639;SDS011;22600;48.186;11.526;2022-12-07T04:27:11;1.52;;;1.20;;
34639;SDS011;22600;48.186;11.526;2022-12-07T04:29:36;1.55;;;1.10;;
34639;SDS011;22600;48.186;11.526;2022-12-07T04:32:02;1.60;;;1.10;;
34639;SDS011;22600;48.186;11.526;2022-12-07T04:34:28;1.90;;;1.35;;
34639;SDS011;22600;48.186;11.526;2022-12-07T04:36:53;2.00;;;1.15;;
34639;SDS011;22600;48.186;11.526;2022-12-07T04:39:21;2.08;;;1.13;;
34639;SDS011;22600;48.186;11.526;2022-12-07T04:41:50;2.15;;;1.10;;
34639;SDS011;22600;48.186;11.526;2022-12-07T04:44:17;1.98;;;1.15;;
34639;SDS011;22600;48.186;11.526;2022-12-07T04:46:43;1.25;;;1.00;;
34639;SDS011;22600;48.186;11.526;2022-12-07T04:49:09;1.48;;;1.00;;
34639;SDS011;22600;48.186;11.526;2022-12-07T04:51:35;1.40;;;0.95;;
34639;SDS011;22600;48.186;11.526;2022-12-07T04:54:01;1.67;;;1.20;;
34639;SDS011;22600;48.186;11.526;2022-12-07T04:56:27;1.25;;;1.10;;
34639;SDS011;22600;48.186;11.526;2022-12-07T04:58:53;1.77;;;1.10;;
34639;SDS011;22600;48.186;11.526;2022-12-07T05:01:19;1.65;;;1.10;;
34639;SDS011;22600;48.186;11.526;2022-12-07T05:03:46;1.27;;;1.10;;
34639;SDS011;22600;48.186;11.526;2022-12-07T05:06:13;1.52;;;1.00;;
34639;SDS011;22600;48.186;11.526;2022-12-07T05:08:39;1.85;;;1.10;;
34639;SDS011;22600;48.186;11.526;2022-12-07T05:11:05;1.38;;;1.00;;
34639;SDS011;22600;48.186;11.526;2022-12-07T05:13:31;1.33;;;1.10;;
34639;SDS011;22600;48.186;11.526;2022-12-07T05:15:57;1.25;;;1.10;;
34639;SDS011;22600;48.186;11.526;2022-12-07T05:18:23;1.48;;;1.10;;
34639;SDS011;22600;48.186;11.526;2022-12-07T05:20:49;1.42;;;1.00;;
34639;SDS011;22600;48.186;11.526;2022-12-07T05:23:16;2.22;;;0.95;;
34639;SDS011;22600;48.186;11.526;2022-12-07T05:25:42;1.77;;;1.20;;
34639;SDS011;22600;48.186;11.526;2022-12-07T05:28:09;2.67;;;1.23;;
34639;SDS011;22600;48.186;11.526;2022-12-07T05:30:35;1.40;;;1.20;;
34639;SDS011;22600;48.186;11.526;2022-12-07T05:33:00;2.05;;;1.10;;
34639;SDS011;22600;48.186;11.526;2022-12-07T05:35:26;1.73;;;1.25;;
34639;SDS011;22600;48.186;11.526;2022-12-07T05:37:52;1.30;;;1.00;;
34639;SDS011;22600;48.186;11.526;2022-12-07T05:40:17;1.38;;;1.17;;
34639;SDS011;22600;48.186;11.526;2022-12-07T05:42:44;1.08;;;0.98;;
34639;SDS011;22600;48.186;11.526;2022-12-07T05:45:09;1.60;;;1.17;;
34639;SDS011;22600;48.186;11.526;2022-12-07T05:47:35;1.02;;;0.88;;
34639;SDS011;22600;48.186;11.526;2022-12-07T05:50:02;1.35;;;0.90;;
34639;SDS011;22600;48.186;11.526;2022-12-07T05:52:28;1.63;;;1.02;;
34639;SDS011;22600;48.186;11.526;2022-12-07T05:54:54;1.98;;;1.10;;
34639;SDS011;22600;48.186;11.526;2022-12-07T05:57:19;2.17;;;1.13;;
34639;SDS011;22600;48.186;11.526;2022-12-07T05:59:45;1.33;;;1.00;;
34639;SDS011;22600;48.186;11.526;2022-12-07T06:02:11;1.70;;;1.10;;
34639;SDS011;22600;48.186;11.526;2022-12-07T06:04:39;1.95;;;1.23;;
34639;SDS011;22600;48.186;11.526;2022-12-07T06:07:06;1.60;;;1.17;;
34639;SDS011;22600;48.186;11.526;2022-12-07T06:09:33;1.70;;;1.20;;
34639;SDS011;22600;48.186;11.526;2022-12-07T06:11:59;1.60;;;1.00;;
34639;SDS011;22600;48.186;11.526;2022-12-07T06:14:43;1.42;;;1.13;;
34639;SDS011;22600;48.186;11.526;2022-12-07T06:17:09;1.20;;;1.00;;
34639;SDS011;22600;48.186;11.526;2022-12-07T06:19:35;1.30;;;1.10;;
34639;SDS011;22600;48.186;11.526;2022-12-07T06:22:02;1.75;;;1.20;;
34639;SDS011;22600;48.186;11.526;2022-12-07T06:24:29;12.05;;;1.20;;
34639;SDS011;22600;48.186;11.526;2022-12-07T06:26:55;1.77;;;0.93;;
34639;SDS011;22600;48.186;11.526;2022-12-07T06:29:20;2.28;;;1.40;;
34639;SDS011;22600;48.186;11.526;2022-12-07T06:31:47;1.48;;;1.13;;
34639;SDS011;22600;48.186;11.526;2022-12-07T06:34:13;1.42;;;1.08;;
34639;SDS011;22600;48.186;11.526;2022-12-07T06:36:41;1.10;;;0.90;;
34639;SDS011;22600;48.186;11.526;2022-12-07T06:39:07;0.98;;;0.90;;
34639;SDS011;22600;48.186;11.526;2022-12-07T06:41:34;1.15;;;0.88;;
34639;SDS011;22600;48.186;11.526;2022-12-07T06:44:01;1.35;;;1.10;;
34639;SDS011;22600;48.186;11.526;2022-12-07T06:46:27;1.02;;;0.93;;
34639;SDS011;22600;48.186;11.526;2022-12-07T06:48:53;1.50;;;1.00;;
34639;SDS011;22600;48.186;11.526;2022-12-07T06:51:19;1.50;;;1.02;;
34639;SDS011;22600;48.186;11.526;2022-12-07T06:53:44;2.13;;;1.15;;
34639;SDS011;22600;48.186;11.526;2022-12-07T06:56:10;1.52;;;1.10;;
34639;SDS011;22600;48.186;11.526;2022-12-07T06:58:36;1.40;;;1.15;;
34639;SDS011;22600;48.186;11.526;2022-12-07T07:01:01;1.63;;;1.23;;
34639;SDS011;22600;48.186;11.526;2022-12-07T07:03:27;1.58;;;1.17;;
34639;SDS011;22600;48.186;11.526;2022-12-07T07:05:53;1.33;;;1.23;;
34639;SDS011;22600;48.186;11.526;2022-12-07T07:08:19;1.58;;;1.05;;
34639;SDS011;22600;48.186;11.526;2022-12-07T07:10:45;1.35;;;1.00;;
34639;SDS011;22600;48.186;11.526;2022-12-07T07:13:11;1.52;;;1.17;;
34639;SDS011;22600;48.186;11.526;2022-12-07T07:15:37;1.70;;;1.20;;
34639;SDS011;22600;48.186;11.526;2022-12-07T07:18:03;1.98;;;1.40;;
34639;SDS011;22600;48.186;11.526;2022-12-07T07:20:29;1.73;;;1.15;;
34639;SDS011;22600;48.186;11.526;2022-12-07T07:22:54;1.77;;;1.10;;
34639;SDS011;22600;48.186;11.526;2022-12-07T07:25:20;1.48;;;1.20;;
34639;SDS011;22600;48.186;11.526;2022-12-07T07:27:46;1.15;;;1.00;;
34639;SDS011;22600;48.186;11.526;2022-12-07T07:30:12;2.03;;;1.38;;
34639;SDS011;22600;48.186;11.526;2022-12-07T07:32:38;1.63;;;1.10;;
34639;SDS011;22600;48.186;11.526;2022-12-07T07:35:04;1.75;;;1.10;;
34639;SDS011;22600;48.186;11.526;2022-12-07T07:37:29;1.40;;;1.08;;
34639;SDS011;22600;48.186;11.526;2022-12-07T07:39:55;1.95;;;1.20;;
34639;SDS011;22600;48.186;11.526;2022-12-07T07:42:21;1.48;;;1.10;;
34639;SDS011;22600;48.186;11.526;2022-12-07T07:44:47;2.70;;;1.30;;
34639;SDS011;22600;48.186;11.526;2022-12-07T07:47:12;1.67;;;1.10;;
34639;SDS011;22600;48.186;11.526;2022-12-07T07:49:38;3.28;;;1.15;;
34639;SDS011;22600;48.186;11.526;2022-12-07T07:52:04;1.75;;;1.27;;
34639;SDS011;22600;48.186;11.526;2022-12-07T07:54:30;1.70;;;1.20;;
34639;SDS011;22600;48.186;11.526;2022-12-07T07:56:56;1.77;;;1.17;;
34639;SDS011;22600;48.186;11.526;2022-12-07T07:59:22;1.85;;;1.20;;
34639;SDS011;22600;48.186;11.526;2022-12-07T08:01:48;1.40;;;1.10;;
34639;SDS011;22600;48.186;11.526;2022-12-07T08:04:13;1.70;;;1.27;;
34639;SDS011;22600;48.186;11.526;2022-12-07T08:06:39;1.63;;;1.20;;
34639;SDS011;22600;48.186;11.526;2022-12-07T08:09:04;2.25;;;1.35;;
34639;SDS011;22600;48.186;11.526;2022-12-07T08:11:31;1.88;;;1.17;;
34639;SDS011;22600;48.186;11.526;2022-12-07T08:13:57;1.27;;;1.08;;
34639;SDS011;22600;48.186;11.526;2022-12-07T08:16:23;1.58;;;1.17;;
34639;SDS011;22600;48.186;11.526;2022-12-07T08:18:48;1.60;;;1.10;;
34639;SDS011;22600;48.186;11.526;2022-12-07T08:21:14;1.65;;;1.20;;
34639;SDS011;22600;48.186;11.526;2022-12-07T08:23:40;1.38;;;1.00;;
34639;SDS011;22600;48.186;11.526;2022-12-07T08:26:08;1.90;;;1.25;;
34639;SDS011;22600;48.186;11.526;2022-12-07T08:28:35;1.25;;;1.10;;
34639;SDS011;22600;48.186;11.526;2022-12-07T08:31:03;1.67;;;1.20;;
34639;SDS011;22600;48.186;11.526;2022-12-07T08:33:37;6.60;;;1.10;;
34639;SDS011;22600;48.186;11.526;2022-12-07T08:36:04;1.25;;;1.10;;
34639;SDS011;22600;48.186;11.526;2022-12-07T08:38:33;1.50;;;1.10;;
34639;SDS011;22600;48.186;11.526;2022-12-07T08:41:03;1.50;;;1.10;;
34639;SDS011;22600;48.186;11.526;2022-12-07T08:43:29;2.00;;;1.20;;
34639;SDS011;22600;48.186;11.526;2022-12-07T08:48:30;1.42;;;1.08;;
34639;SDS011;22600;48.186;11.526;2022-12-07T08:50:57;1.52;;;1.15;;
34639;SDS011;22600;48.186;11.526;2022-12-07T08:53:23;1.52;;;1.17;;
34639;SDS011;22600;48.186;11.526;2022-12-07T08:55:49;2.33;;;1.10;;
34639;SDS011;22600;48.186;11.526;2022-12-07T08:58:15;1.33;;;1.10;;
34639;SDS011;22600;48.186;11.526;2022-12-07T09:00:41;2.20;;;1.10;;
34639;SDS011;22600;48.186;11.526;2022-12-07T09:03:06;2.70;;;1.20;;
34639;SDS011;22600;48.186;11.526;2022-12-07T09:05:32;7.95;;;3.75;;
34639;SDS011;22600;48.186;11.526;2022-12-07T09:08:00;6.38;;;2.80;;
34639;SDS011;22600;48.186;11.526;2022-12-07T09:10:27;4.22;;;2.60;;
34639;SDS011;22600;48.186;11.526;2022-12-07T09:12:53;5.22;;;2.40;;
34639;SDS011;22600;48.186;11.526;2022-12-07T09:15:22;6.13;;;2.28;;
34639;SDS011;22600;48.186;11.526;2022-12-07T09:17:53;3.55;;;2.13;;
34639;SDS011;22600;48.186;11.526;2022-12-07T09:20:20;4.03;;;2.10;;
34639;SDS011;22600;48.186;11.526;2022-12-07T09:22:47;2.35;;;1.83;;
34639;SDS011;22600;48.186;11.526;2022-12-07T09:25:13;2.90;;;2.00;;
34639;SDS011;22600;48.186;11.526;2022-12-07T09:27:42;4.72;;;2.10;;
34639;SDS011;22600;48.186;11.526;2022-12-07T09:30:08;3.58;;;2.30;;
34639;SDS011;22600;48.186;11.526;2022-12-07T09:32:38;2.60;;;1.80;;
34639;SDS011;22600;48.186;11.526;2022-12-07T09:35:06;3.00;;;1.90;;
34639;SDS011;22600;48.186;11.526;2022-12-07T09:37:36;2.60;;;1.90;;
34639;SDS011;22600;48.186;11.526;2022-12-07T09:40:03;2.92;;;1.90;;
34639;SDS011;22600;48.186;11.526;2022-12-07T09:44:59;2.25;;;1.75;;
34639;SDS011;22600;48.186;11.526;2022-12-07T09:47:27;2.17;;;1.75;;
34639;SDS011;22600;48.186;11.526;2022-12-07T09:50:03;2.30;;;1.77;;
34639;SDS011;22600;48.186;11.526;2022-12-07T09:52:34;2.92;;;1.80;;
34639;SDS011;22600;48.186;11.526;2022-12-07T09:55:01;3.25;;;1.92;;
34639;SDS011;22600;48.186;11.526;2022-12-07T09:57:30;3.08;;;1.85;;
34639;SDS011;22600;48.186;11.526;2022-12-07T10:00:02;2.75;;;2.00;;
34639;SDS011;22600;48.186;11.526;2022-12-07T10:02:40;2.40;;;1.77;;
34639;SDS011;22600;48.186;11.526;2022-12-07T10:05:13;5.35;;;1.95;;
34639;SDS011;22600;48.186;11.526;2022-12-07T10:07:45;5.97;;;2.20;;
34639;SDS011;22600;48.186;11.526;2022-12-07T10:10:15;2.20;;;1.70;;
34639;SDS011;22600;48.186;11.526;2022-12-07T10:15:23;2.60;;;1.90;;
34639;SDS011;22600;48.186;11.526;2022-12-07T10:18:16;2.72;;;1.70;;
34639;SDS011;22600;48.186;11.526;2022-12-07T10:20:48;3.38;;;1.90;;
34639;SDS011;22600;48.186;11.526;2022-12-07T10:23:15;3.00;;;1.70;;
34639;SDS011;22600;48.186;11.526;2022-12-07T10:25:42;3.30;;;1.63;;
34639;SDS011;22600;48.186;11.526;2022-12-07T10:28:13;3.28;;;2.08;;
34639;SDS011;22600;48.186;11.526;2022-12-07T10:35:54;2.45;;;1.80;;
34639;SDS011;22600;48.186;11.526;2022-12-07T10:38:20;2.22;;;1.70;;
34639;SDS011;22600;48.186;11.526;2022-12-07T10:40:46;2.97;;;1.58;;
34639;SDS011;22600;48.186;11.526;2022-12-07T10:54:19;3.10;;;1.67;;
34639;SDS011;22600;48.186;11.526;2022-12-07T11:07:40;2.55;;;1.40;;
34639;SDS011;22600;48.186;11.526;2022-12-07T11:10:19;3.00;;;1.50;;
34639;SDS011;22600;48.186;11.526;2022-12-07T11:18:29;3.35;;;1.70;;
34639;SDS011;22600;48.186;11.526;2022-12-07T11:24:15;3.42;;;2.25;;
34639;SDS011;22600;48.186;11.526;2022-12-07T11:38:07;3.03;;;2.08;;
34639;SDS011;22600;48.186;11.526;2022-12-07T11:40:39;3.83;;;2.00;;
34639;SDS011;22600;48.186;11.526;2022-12-07T11:46:19;2.40;;;1.90;;
34639;SDS011;22600;48.186;11.526;2022-12-07T11:51:37;3.15;;;2.20;;
34639;SDS011;22600;48.186;11.526;2022-12-07T11:54:16;2.95;;;2.13;;
34639;SDS011;22600;48.186;11.526;2022-12-07T11:56:48;18.88;;;8.15;;
34639;SDS011;22600;48.186;11.526;2022-12-07T11:59:17;21.52;;;6.93;;
34639;SDS011;22600;48.186;11.526;2022-12-07T12:06:50;7.43;;;3.40;;
34639;SDS011;22600;48.186;11.526;2022-12-07T12:09:17;6.43;;;3.22;;
34639;SDS011;22600;48.186;11.526;2022-12-07T12:12:01;4.90;;;3.00;;
34639;SDS011;22600;48.186;11.526;2022-12-07T12:17:19;6.53;;;3.60;;
34639;SDS011;22600;48.186;11.526;2022-12-07T12:25:47;4.47;;;3.33;;
34639;SDS011;22600;48.186;11.526;2022-12-07T12:28:18;6.20;;;3.20;;
34639;SDS011;22600;48.186;11.526;2022-12-07T12:31:04;5.63;;;3.53;;
34639;SDS011;22600;48.186;11.526;2022-12-07T12:33:45;6.63;;;3.45;;
34639;SDS011;22600;48.186;11.526;2022-12-07T12:38:48;7.32;;;4.00;;
34639;SDS011;22600;48.186;11.526;2022-12-07T12:44:01;26.45;;;11.45;;
34639;SDS011;22600;48.186;11.526;2022-12-07T12:51:51;14.82;;;8.60;;
34639;SDS011;22600;48.186;11.526;2022-12-07T12:54:29;17.27;;;9.20;;
34639;SDS011;22600;48.186;11.526;2022-12-07T13:02:32;14.93;;;7.25;;
34639;SDS011;22600;48.186;11.526;2022-12-07T13:05:16;13.95;;;6.80;;
34639;SDS011;22600;48.186;11.526;2022-12-07T13:07:52;13.48;;;6.18;;
34639;SDS011;22600;48.186;11.526;2022-12-07T13:12:56;12.73;;;6.47;;
34639;SDS011;22600;48.186;11.526;2022-12-07T13:15:39;11.20;;;6.28;;
34639;SDS011;22600;48.186;11.526;2022-12-07T13:23:37;11.13;;;5.43;;
34639;SDS011;22600;48.186;11.526;2022-12-07T13:32:17;9.57;;;5.68;;
34639;SDS011;22600;48.186;11.526;2022-12-07T13:34:44;8.73;;;4.82;;
34639;SDS011;22600;48.186;11.526;2022-12-07T13:37:10;8.82;;;5.38;;
34639;SDS011;22600;48.186;11.526;2022-12-07T13:39:57;9.77;;;4.80;;
34639;SDS011;22600;48.186;11.526;2022-12-07T13:42:28;8.20;;;4.65;;
34639;SDS011;22600;48.186;11.526;2022-12-07T13:47:27;8.05;;;4.40;;
34639;SDS011;22600;48.186;11.526;2022-12-07T13:50:26;8.38;;;4.75;;
34639;SDS011;22600;48.186;11.526;2022-12-07T13:52:55;7.05;;;4.40;;
34639;SDS011;22600;48.186;11.526;2022-12-07T13:55:24;7.07;;;4.15;;
34639;SDS011;22600;48.186;11.526;2022-12-07T13:57:52;7.15;;;4.50;;
34639;SDS011;22600;48.186;11.526;2022-12-07T14:00:19;6.72;;;4.40;;
34639;SDS011;22600;48.186;11.526;2022-12-07T14:02:55;7.30;;;3.83;;
34639;SDS011;22600;48.186;11.526;2022-12-07T14:05:44;7.95;;;4.35;;
34639;SDS011;22600;48.186;11.526;2022-12-07T14:10:39;7.00;;;4.10;;
34639;SDS011;22600;48.186;11.526;2022-12-07T14:15:54;8.88;;;3.80;;
34639;SDS011;22600;48.186;11.526;2022-12-07T14:18:40;7.30;;;3.65;;
34639;SDS011;22600;48.186;11.526;2022-12-07T14:23:36;5.95;;;3.60;;
34639;SDS011;22600;48.186;11.526;2022-12-07T14:28:41;7.00;;;3.55;;
34639;SDS011;22600;48.186;11.526;2022-12-07T14:31:11;7.22;;;3.53;;
34639;SDS011;22600;48.186;11.526;2022-12-07T14:33:39;5.60;;;3.45;;
34639;SDS011;22600;48.186;11.526;2022-12-07T14:36:05;9.38;;;3.92;;
34639;SDS011;22600;48.186;11.526;2022-12-07T14:38:33;7.13;;;3.88;;
34639;SDS011;22600;48.186;11.526;2022-12-07T14:40:59;5.72;;;3.10;;
34639;SDS011;22600;48.186;11.526;2022-12-07T14:43:45;6.10;;;3.40;;
34639;SDS011;22600;48.186;11.526;2022-12-07T14:46:10;7.07;;;3.20;;
34639;SDS011;22600;48.186;11.526;2022-12-07T14:48:36;6.15;;;3.50;;
34639;SDS011;22600;48.186;11.526;2022-12-07T14:51:02;5.15;;;3.67;;
34639;SDS011;22600;48.186;11.526;2022-12-07T14:53:30;5.65;;;3.55;;
34639;SDS011;22600;48.186;11.526;2022-12-07T14:56:01;5.47;;;2.92;;
34639;SDS011;22600;48.186;11.526;2022-12-07T14:58:27;5.28;;;3.20;;
34639;SDS011;22600;48.186;11.526;2022-12-07T15:00:53;4.47;;;3.20;;
34639;SDS011;22600;48.186;11.526;2022-12-07T15:03:18;6.15;;;3.75;;
34639;SDS011;22600;48.186;11.526;2022-12-07T15:05:44;8.07;;;3.58;;
34639;SDS011;22600;48.186;11.526;2022-12-07T15:08:11;5.25;;;3.40;;
34639;SDS011;22600;48.186;11.526;2022-12-07T15:10:37;10.38;;;3.20;;
34639;SDS011;22600;48.186;11.526;2022-12-07T15:13:03;4.88;;;3.10;;
34639;SDS011;22600;48.186;11.526;2022-12-07T15:15:49;4.75;;;3.08;;
34639;SDS011;22600;48.186;11.526;2022-12-07T15:18:16;4.47;;;3.00;;
34639;SDS011;22600;48.186;11.526;2022-12-07T15:20:43;7.35;;;3.38;;
34639;SDS011;22600;48.186;11.526;2022-12-07T15:23:10;4.43;;;3.30;;
34639;SDS011;22600;48.186;11.526;2022-12-07T15:25:36;4.88;;;3.25;;
34639;SDS011;22600;48.186;11.526;2022-12-07T15:28:02;4.53;;;3.22;;
34639;SDS011;22600;48.186;11.526;2022-12-07T15:30:28;4.75;;;3.38;;
34639;SDS011;22600;48.186;11.526;2022-12-07T15:32:54;4.47;;;3.00;;
34639;SDS011;22600;48.186;11.526;2022-12-07T15:35:19;5.05;;;3.30;;
34639;SDS011;22600;48.186;11.526;2022-12-07T15:37:46;6.15;;;3.42;;
34639;SDS011;22600;48.186;11.526;2022-12-07T15:40:12;3.67;;;2.72;;
34639;SDS011;22600;48.186;11.526;2022-12-07T15:42:38;4.97;;;2.95;;
34639;SDS011;22600;48.186;11.526;2022-12-07T15:45:05;5.53;;;2.92;;
34639;SDS011;22600;48.186;11.526;2022-12-07T15:47:33;4.65;;;3.08;;
34639;SDS011;22600;48.186;11.526;2022-12-07T15:50:04;4.65;;;3.13;;
34639;SDS011;22600;48.186;11.526;2022-12-07T15:52:31;4.97;;;3.28;;
34639;SDS011;22600;48.186;11.526;2022-12-07T15:54:57;6.00;;;3.15;;
34639;SDS011;22600;48.186;11.526;2022-12-07T15:57:24;5.43;;;3.15;;
34639;SDS011;22600;48.186;11.526;2022-12-07T15:59:51;4.38;;;3.00;;
34639;SDS011;22600;48.186;11.526;2022-12-07T16:02:16;4.93;;;3.00;;
34639;SDS011;22600;48.186;11.526;2022-12-07T16:04:42;6.45;;;3.22;;
34639;SDS011;22600;48.186;11.526;2022-12-07T16:07:08;5.32;;;3.30;;
34639;SDS011;22600;48.186;11.526;2022-12-07T16:09:36;4.53;;;3.10;;
34639;SDS011;22600;48.186;11.526;2022-12-07T16:12:02;4.60;;;3.10;;
34639;SDS011;22600;48.186;11.526;2022-12-07T16:14:28;7.18;;;3.20;;
34639;SDS011;22600;48.186;11.526;2022-12-07T16:16:54;4.18;;;2.90;;
34639;SDS011;22600;48.186;11.526;2022-12-07T16:19:20;5.47;;;2.92;;
34639;SDS011;22600;48.186;11.526;2022-12-07T16:21:45;4.10;;;2.88;;
34639;SDS011;22600;48.186;11.526;2022-12-07T16:24:11;4.53;;;2.97;;
34639;SDS011;22600;48.186;11.526;2022-12-07T16:26:39;6.25;;;2.85;;
34639;SDS011;22600;48.186;11.526;2022-12-07T16:29:05;4.28;;;2.90;;
34639;SDS011;22600;48.186;11.526;2022-12-07T16:31:31;3.75;;;2.72;;
34639;SDS011;22600;48.186;11.526;2022-12-07T16:33:57;3.83;;;2.85;;
34639;SDS011;22600;48.186;11.526;2022-12-07T16:36:23;5.25;;;3.13;;
34639;SDS011;22600;48.186;11.526;2022-12-07T16:38:51;5.93;;;2.92;;
34639;SDS011;22600;48.186;11.526;2022-12-07T16:41:17;3.10;;;2.42;;
34639;SDS011;22600;48.186;11.526;2022-12-07T16:43:43;5.78;;;2.90;;
34639;SDS011;22600;48.186;11.526;2022-12-07T16:46:10;3.90;;;2.80;;
34639;SDS011;22600;48.186;11.526;2022-12-07T16:48:39;5.53;;;2.83;;
34639;SDS011;22600;48.186;11.526;2022-12-07T16:51:05;4.75;;;2.63;;
34639;SDS011;22600;48.186;11.526;2022-12-07T16:53:33;6.13;;;2.80;;
34639;SDS011;22600;48.186;11.526;2022-12-07T16:56:00;5.88;;;2.70;;
34639;SDS011;22600;48.186;11.526;2022-12-07T16:58:26;4.05;;;3.03;;
34639;SDS011;22600;48.186;11.526;2022-12-07T17:00:52;5.20;;;2.55;;
34639;SDS011;22600;48.186;11.526;2022-12-07T17:03:18;4.40;;;2.88;;
34639;SDS011;22600;48.186;11.526;2022-12-07T17:05:44;4.07;;;2.60;;